Maersk Rosario — V2BG2 — position and weather

sailwx.info

Track history (hours):
 
Tides and Currents Weather Stations Pressure Air Temp Water Temp Dewpoint Dewpoint Depression Visibility Wind Speed Wind Dir Waves Ship Positions

Maersk Rosario

Last reported at 2017-Sep-18 20:01 UTC. Time now 2017-Sep-19 22:23 UTC.
Position N 40°29' E 028°20'.

Length 161.1 m; beam 25 m; draft 9.5 m.

Type: Cargo ship. MMSI: 304814000.

Date/timePositionNaut miles runAvg speedWind from/ knotsBaromVisibWave heightAir tempDewpointWater temp
2017-Sep-18 20:01N 40°29' E 028°20'11111.9
2017-Sep-18 10:40N 39°58' E 025°60'312.8
2017-Sep-18 10:25N 39°56' E 025°57'612.6
2017-Sep-18 09:57N 39°53' E 025°50'48 8.5
2017-Sep-18 04:21N 39°45' E 024°48'513.8
2017-Sep-18 04:00N 39°45' E 024°42'714.2
2017-Sep-18 03:30N 39°46' E 024°33'714.4
2017-Sep-18 03:00N 39°47' E 024°24'914.6
2017-Sep-18 02:24N 39°48' E 024°12'614.5
2017-Sep-18 02:00N 39°48' E 024°05'3414.3
2017-Sep-17 23:35N 39°54' E 023°20'  
2017-Sep-10 23:29N 35°48' E 014°36'3 0.8
2017-Sep-10 19:44N 35°49' E 014°32'0 0.0
2017-Sep-10 17:35N 35°49' E 014°32'8 0.5
2017-Sep-10 01:19N 35°46' E 014°23'515.3
2017-Sep-10 01:00N 35°48' E 014°18'815.2
2017-Sep-10 00:30N 35°53' E 014°10'815.2
2017-Sep-10 00:00N 35°57' E 014°02'  
Track history (hours):
 
Tides and Currents Weather Stations Pressure Air Temp Water Temp Dewpoint Dewpoint Depression Visibility Wind Speed Wind Dir Waves Ship Positions

Maersk Rosario

Last reported at 2017-Sep-18 20:01 UTC. Time now 2017-Sep-19 22:23 UTC.
Position N 40°29' E 028°20'.

Length 161.1 m; beam 25 m; draft 9.5 m.

Type: Cargo ship. MMSI: 304814000.

Date/timePositionNaut miles runAvg speedWind from/ knotsBaromVisibWave heightAir tempDewpointWater temp
2017-Sep-18 20:01N 40°29' E 028°20'11111.9
2017-Sep-18 10:40N 39°58' E 025°60'312.8
2017-Sep-18 10:25N 39°56' E 025°57'612.6
2017-Sep-18 09:57N 39°53' E 025°50'48 8.5
2017-Sep-18 04:21N 39°45' E 024°48'513.8
2017-Sep-18 04:00N 39°45' E 024°42'714.2
2017-Sep-18 03:30N 39°46' E 024°33'714.4
2017-Sep-18 03:00N 39°47' E 024°24'914.6
2017-Sep-18 02:24N 39°48' E 024°12'614.5
2017-Sep-18 02:00N 39°48' E 024°05'3414.3
2017-Sep-17 23:35N 39°54' E 023°20'  
2017-Sep-10 23:29N 35°48' E 014°36'3 0.8
2017-Sep-10 19:44N 35°49' E 014°32'0 0.0
2017-Sep-10 17:35N 35°49' E 014°32'8 0.5
2017-Sep-10 01:19N 35°46' E 014°23'515.3
2017-Sep-10 01:00N 35°48' E 014°18'815.2
2017-Sep-10 00:30N 35°53' E 014°10'815.2
2017-Sep-10 00:00N 35°57' E 014°02'  

Dump ship's entire track history